Time;durP1;ratioP1;P1;durP2;ratioP2;P2;SDS_P1;SDS_P2;PMS_P1;PMS_P2;Temp;Humidity;BMP_temperature;BMP_pressure;BME280_temperature;BME280_humidity;BME280_pressure;Samples;Min_cycle;Max_cycle;Signal;HPM_P1;HPM_P2
2023/09/20 00:01:27;;;;;;;14.57;2.95;;;;;;;;;;5107837;28;20067;-38
2023/09/20 00:03:54;;;;;;;17.25;2.85;;;;;;;;;;5109399;28;20398;-38
2023/09/20 00:06:21;;;;;;;20.33;2.47;;;;;;;;;;5111094;28;20035;-37
2023/09/20 00:08:48;;;;;;;18.15;2.90;;;;;;;;;;5105475;28;20028;-39
2023/09/20 00:11:18;;;;;;;22.33;3.15;;;;;;;;;;5100085;28;20016;-39
2023/09/20 00:13:46;;;;;;;15.38;3.05;;;;;;;;;;5104157;28;20397;-38
2023/09/20 00:16:13;;;;;;;21.65;3.40;;;;;;;;;;5087597;28;20492;-39
2023/09/20 00:18:40;;;;;;;20.38;3.30;;;;;;;;;;5108021;28;20020;-38
2023/09/20 00:21:07;;;;;;;20.52;3.20;;;;;;;;;;5101396;28;20032;-38
2023/09/20 00:23:35;;;;;;;19.27;3.45;;;;;;;;;;5093416;28;20052;-38
2023/09/20 00:26:02;;;;;;;22.00;3.67;;;;;;;;;;5094469;28;20056;-37
2023/09/20 00:28:29;;;;;;;34.97;4.47;;;;;;;;;;5111133;28;20104;-38
2023/09/20 00:30:57;;;;;;;32.58;5.18;;;;;;;;;;5102725;28;20061;-38
2023/09/20 00:33:25;;;;;;;37.70;4.63;;;;;;;;;;5096867;28;20501;-38
2023/09/20 00:35:52;;;;;;;25.38;4.32;;;;;;;;;;5106822;28;20047;-37
2023/09/20 00:38:19;;;;;;;34.15;4.55;;;;;;;;;;5113098;28;20055;-37
2023/09/20 00:40:49;;;;;;;35.78;5.05;;;;;;;;;;5114245;28;20080;-39
2023/09/20 00:43:23;;;;;;;39.13;5.55;;;;;;;;;;5114274;28;20123;-39
2023/09/20 00:45:50;;;;;;;32.47;5.10;;;;;;;;;;5104341;28;20123;-36
2023/09/20 00:48:18;;;;;;;38.72;6.20;;;;;;;;;;5106389;28;20084;-38
2023/09/20 00:50:45;;;;;;;35.38;6.03;;;;;;;;;;5113409;28;20034;-39
2023/09/20 00:53:13;;;;;;;34.97;6.78;;;;;;;;;;5113277;28;20060;-36
2023/09/20 00:55:44;;;;;;;40.90;6.63;;;;;;;;;;5109081;28;20374;-39
2023/09/20 00:58:18;;;;;;;35.40;6.35;;;;;;;;;;5112230;28;20486;-39
2023/09/20 01:00:51;;;;;;;47.15;6.28;;;;;;;;;;5110322;27;20027;-38
2023/09/20 01:03:19;;;;;;;37.90;7.18;;;;;;;;;;5113209;28;20042;-37
2023/09/20 01:05:49;;;;;;;38.63;6.85;;;;;;;;;;5113690;28;20023;-39
2023/09/20 01:08:17;;;;;;;48.05;7.80;;;;;;;;;;5077838;28;20397;-41
2023/09/20 01:10:45;;;;;;;47.20;7.50;;;;;;;;;;5110999;28;20070;-37
2023/09/20 01:13:15;;;;;;;41.97;7.50;;;;;;;;;;5113184;28;20028;-39
2023/09/20 01:15:42;;;;;;;41.33;7.05;;;;;;;;;;5112984;28;20096;-38
2023/09/20 01:18:09;;;;;;;43.60;7.43;;;;;;;;;;5113396;28;20468;-38
2023/09/20 01:20:39;;;;;;;40.53;8.27;;;;;;;;;;5113409;28;20020;-38
2023/09/20 01:23:06;;;;;;;46.83;9.65;;;;;;;;;;5109579;28;20035;-36
2023/09/20 01:25:37;;;;;;;53.35;11.45;;;;;;;;;;5104261;28;20074;-38
2023/09/20 01:28:06;;;;;;;66.30;17.25;;;;;;;;;;5113405;28;20039;-36
2023/09/20 01:30:37;;;;;;;66.90;16.65;;;;;;;;;;5112614;28;20089;-36
2023/09/20 01:33:09;;;;;;;71.13;20.47;;;;;;;;;;5113514;28;20041;-37
2023/09/20 01:35:37;;;;;;;70.50;19.75;;;;;;;;;;5113582;28;20285;-38
2023/09/20 01:38:07;;;;;;;68.28;18.27;;;;;;;;;;5113175;28;20027;-37
2023/09/20 01:40:35;;;;;;;58.80;18.02;;;;;;;;;;5113360;28;20381;-36
2023/09/20 01:43:11;;;;;;;69.40;16.77;;;;;;;;;;5113173;28;20580;-36
2023/09/20 01:45:38;;;;;;;70.32;18.88;;;;;;;;;;5113098;28;20063;-36
2023/09/20 01:48:10;;;;;;;57.90;16.35;;;;;;;;;;5113007;28;20023;-39
2023/09/20 01:50:41;;;;;;;72.80;19.02;;;;;;;;;;5112743;28;20538;-39
2023/09/20 01:53:10;;;;;;;43.58;12.45;;;;;;;;;;5112369;28;20032;-40
2023/09/20 01:55:37;;;;;;;45.53;11.60;;;;;;;;;;5112866;28;20043;-38
2023/09/20 01:58:07;;;;;;;35.08;11.07;;;;;;;;;;5112697;28;20027;-40
2023/09/20 02:00:40;;;;;;;39.10;10.82;;;;;;;;;;5112469;28;20039;-40
2023/09/20 02:03:16;;;;;;;39.88;11.35;;;;;;;;;;5109622;28;20080;-40
2023/09/20 02:05:46;;;;;;;53.17;14.55;;;;;;;;;;5108898;27;20023;-40
2023/09/20 02:08:13;;;;;;;48.17;15.35;;;;;;;;;;5111599;28;20027;-42
2023/09/20 02:10:41;;;;;;;56.40;15.02;;;;;;;;;;5100632;28;20024;-38
2023/09/20 02:13:08;;;;;;;55.25;15.63;;;;;;;;;;5094140;28;20054;-40
2023/09/20 02:15:35;;;;;;;50.45;13.55;;;;;;;;;;5112783;28;20038;-40
2023/09/20 02:18:05;;;;;;;41.97;14.13;;;;;;;;;;5112617;27;20046;-37
2023/09/20 02:20:39;;;;;;;44.00;13.75;;;;;;;;;;5116197;27;20028;-37
2023/09/20 02:23:06;;;;;;;53.45;13.27;;;;;;;;;;5119848;27;20106;-37
2023/09/20 02:25:34;;;;;;;52.10;12.90;;;;;;;;;;5122329;27;20016;-39
2023/09/20 02:28:01;;;;;;;41.08;11.98;;;;;;;;;;5123415;27;20544;-37
2023/09/20 02:30:31;;;;;;;45.10;13.45;;;;;;;;;;5118759;27;20020;-38
2023/09/20 02:32:59;;;;;;;38.05;11.85;;;;;;;;;;5102310;28;20024;-40
2023/09/20 02:35:27;;;;;;;41.53;12.45;;;;;;;;;;5100604;28;20048;-39
2023/09/20 02:37:56;;;;;;;37.20;11.93;;;;;;;;;;5101650;28;20027;-38
2023/09/20 02:40:26;;;;;;;35.45;10.40;;;;;;;;;;5118933;27;20024;-40
2023/09/20 02:42:58;;;;;;;30.52;10.98;;;;;;;;;;5121134;27;20027;-37
2023/09/20 02:45:25;;;;;;;38.63;10.85;;;;;;;;;;5119357;27;20058;-39
2023/09/20 02:47:54;;;;;;;40.03;11.00;;;;;;;;;;5129899;27;20029;-39
2023/09/20 02:50:23;;;;;;;35.88;10.82;;;;;;;;;;5132992;27;20026;-40
2023/09/20 02:52:51;;;;;;;33.58;10.05;;;;;;;;;;5132597;27;20019;-39
2023/09/20 02:55:20;;;;;;;35.65;10.25;;;;;;;;;;5132954;27;20123;-39
2023/09/20 02:57:51;;;;;;;31.50;9.57;;;;;;;;;;5132756;27;20019;-39
2023/09/20 03:00:23;;;;;;;24.25;9.43;;;;;;;;;;5132675;27;20026;-39
2023/09/20 03:02:50;;;;;;;29.05;8.93;;;;;;;;;;5114079;27;20098;-39
2023/09/20 03:05:17;;;;;;;26.98;8.85;;;;;;;;;;5132782;27;20054;-39
2023/09/20 03:07:44;;;;;;;28.45;9.00;;;;;;;;;;5132711;27;20015;-40
2023/09/20 03:10:12;;;;;;;20.75;7.95;;;;;;;;;;5132370;27;20021;-39
2023/09/20 03:12:41;;;;;;;26.60;8.85;;;;;;;;;;5132595;27;20058;-39
2023/09/20 03:15:10;;;;;;;25.85;8.85;;;;;;;;;;5132477;27;20030;-37
2023/09/20 03:17:38;;;;;;;23.70;7.68;;;;;;;;;;5132472;27;20031;-37
2023/09/20 03:20:39;;;;;;;22.08;8.63;;;;;;;;;;5132354;27;20023;-37
2023/09/20 03:22:59;;;;;;;21.30;7.80;;;;;;;;;;5128006;27;20107;-37
2023/09/20 03:25:36;;;;;;;19.77;8.43;;;;;;;;;;5132498;27;20415;-37
2023/09/20 03:28:04;;;;;;;23.20;8.10;;;;;;;;;;5132296;28;20385;-37
2023/09/20 03:30:34;;;;;;;24.25;7.53;;;;;;;;;;5132414;28;20023;-38
2023/09/20 03:33:01;;;;;;;22.13;7.85;;;;;;;;;;5132744;28;20053;-37
2023/09/20 03:35:28;;;;;;;22.75;7.25;;;;;;;;;;5132281;28;20023;-37
2023/09/20 03:37:58;;;;;;;23.67;7.72;;;;;;;;;;5132330;28;20034;-37
2023/09/20 03:40:28;;;;;;;25.63;7.65;;;;;;;;;;5132319;28;20019;-39
2023/09/20 03:42:55;;;;;;;19.58;7.18;;;;;;;;;;5132372;28;20027;-39
2023/09/20 03:45:22;;;;;;;26.20;7.75;;;;;;;;;;5132400;28;20523;-40
2023/09/20 03:47:50;;;;;;;24.33;8.15;;;;;;;;;;5132329;28;20019;-39
2023/09/20 03:50:21;;;;;;;21.27;8.23;;;;;;;;;;5132132;28;20034;-39
2023/09/20 03:52:48;;;;;;;19.02;6.88;;;;;;;;;;5132354;28;20079;-39
2023/09/20 03:55:16;;;;;;;21.80;6.93;;;;;;;;;;5132132;28;20031;-39
2023/09/20 03:57:43;;;;;;;18.90;6.70;;;;;;;;;;5132242;28;20030;-39
2023/09/20 04:00:27;;;;;;;20.02;7.00;;;;;;;;;;5132166;28;20112;-39
2023/09/20 04:02:55;;;;;;;16.33;6.60;;;;;;;;;;5132086;28;20374;-39
2023/09/20 04:05:24;;;;;;;17.77;6.70;;;;;;;;;;5132619;27;20035;-39
2023/09/20 04:07:51;;;;;;;21.38;6.50;;;;;;;;;;5136125;27;20030;-40
2023/09/20 04:10:18;;;;;;;19.23;6.50;;;;;;;;;;5135895;27;20025;-39
2023/09/20 04:12:48;;;;;;;14.85;5.82;;;;;;;;;;5135838;27;20031;-39
2023/09/20 04:15:17;;;;;;;16.33;6.57;;;;;;;;;;5135883;27;20019;-39
2023/09/20 04:17:44;;;;;;;19.13;7.05;;;;;;;;;;5135846;27;20034;-40
2023/09/20 04:20:12;;;;;;;15.27;6.00;;;;;;;;;;5135938;27;20096;-39
2023/09/20 04:22:40;;;;;;;19.63;7.03;;;;;;;;;;5117476;27;20131;-41
2023/09/20 04:25:10;;;;;;;14.75;6.35;;;;;;;;;;5135595;27;20043;-39
2023/09/20 04:27:37;;;;;;;15.35;6.07;;;;;;;;;;5135791;27;20034;-39
2023/09/20 04:30:07;;;;;;;16.88;6.13;;;;;;;;;;5135716;27;20377;-39
2023/09/20 04:32:35;;;;;;;16.98;5.65;;;;;;;;;;5135600;27;20023;-40
2023/09/20 04:35:04;;;;;;;15.70;5.85;;;;;;;;;;5135578;27;20107;-39
2023/09/20 04:37:31;;;;;;;18.33;6.00;;;;;;;;;;5135558;27;20028;-39
2023/09/20 04:39:58;;;;;;;14.52;5.43;;;;;;;;;;5121960;27;20546;-37
2023/09/20 04:42:26;;;;;;;13.32;5.43;;;;;;;;;;5115021;28;20020;-37
2023/09/20 04:44:53;;;;;;;13.20;5.18;;;;;;;;;;5115038;28;20066;-37
2023/09/20 04:47:20;;;;;;;13.75;5.10;;;;;;;;;;5114784;28;20400;-37
2023/09/20 04:49:47;;;;;;;15.15;5.85;;;;;;;;;;5114735;28;20173;-37
2023/09/20 04:52:15;;;;;;;15.05;5.30;;;;;;;;;;5114822;28;20073;-37
2023/09/20 04:54:43;;;;;;;16.08;5.18;;;;;;;;;;5114682;28;20067;-37
2023/09/20 04:57:12;;;;;;;16.55;5.40;;;;;;;;;;5114637;28;20081;-37
2023/09/20 04:59:40;;;;;;;14.95;5.40;;;;;;;;;;5114551;28;20473;-37
2023/09/20 05:02:08;;;;;;;12.23;5.65;;;;;;;;;;5114474;28;20035;-37
2023/09/20 05:04:35;;;;;;;11.48;5.18;;;;;;;;;;5114374;28;20058;-37
2023/09/20 05:07:06;;;;;;;11.98;5.55;;;;;;;;;;5114434;28;20040;-37
2023/09/20 05:09:34;;;;;;;15.00;5.25;;;;;;;;;;5114375;28;20028;-37
2023/09/20 05:12:04;;;;;;;15.75;5.78;;;;;;;;;;5114357;28;20027;-37
2023/09/20 05:14:31;;;;;;;12.43;5.65;;;;;;;;;;5114381;28;20024;-37
2023/09/20 05:16:58;;;;;;;15.48;5.65;;;;;;;;;;5113984;28;20024;-37
2023/09/20 05:19:25;;;;;;;12.23;5.22;;;;;;;;;;5114266;28;20077;-37
2023/09/20 05:21:52;;;;;;;13.95;5.05;;;;;;;;;;5114239;28;20415;-37
2023/09/20 05:24:19;;;;;;;13.68;4.72;;;;;;;;;;5092301;28;20060;-37
2023/09/20 05:26:46;;;;;;;13.90;5.55;;;;;;;;;;5093732;28;20498;-37
2023/09/20 05:29:13;;;;;;;11.85;4.50;;;;;;;;;;5093702;28;20035;-37
2023/09/20 05:31:40;;;;;;;12.93;5.18;;;;;;;;;;5093639;28;20024;-37
2023/09/20 05:34:07;;;;;;;12.40;4.97;;;;;;;;;;5093666;28;20030;-37
2023/09/20 05:36:35;;;;;;;11.75;4.78;;;;;;;;;;5093558;28;20024;-37
2023/09/20 05:39:06;;;;;;;18.25;4.85;;;;;;;;;;5093464;28;20252;-37
2023/09/20 05:41:34;;;;;;;12.23;4.85;;;;;;;;;;5093346;28;20043;-37
2023/09/20 05:44:01;;;;;;;12.23;5.13;;;;;;;;;;5093365;28;20114;-37
2023/09/20 05:46:27;;;;;;;14.32;4.43;;;;;;;;;;5093707;28;20024;-37
2023/09/20 05:48:54;;;;;;;11.55;4.47;;;;;;;;;;5093339;28;20051;-37
2023/09/20 05:51:22;;;;;;;11.85;4.40;;;;;;;;;;5093114;28;20024;-38
2023/09/20 05:53:49;;;;;;;10.70;4.10;;;;;;;;;;5093346;28;20081;-37
2023/09/20 05:56:15;;;;;;;12.25;4.40;;;;;;;;;;5093216;28;20028;-37
2023/09/20 05:58:43;;;;;;;9.85;4.13;;;;;;;;;;5093221;28;20032;-37
2023/09/20 06:01:10;;;;;;;8.05;3.85;;;;;;;;;;5091957;28;20385;-37
2023/09/20 06:03:37;;;;;;;11.30;4.20;;;;;;;;;;5092976;28;20555;-37
2023/09/20 06:06:06;;;;;;;10.48;4.18;;;;;;;;;;5092995;28;20839;-37
2023/09/20 06:08:34;;;;;;;10.57;4.10;;;;;;;;;;5092926;28;20028;-37
2023/09/20 06:11:04;;;;;;;10.00;3.80;;;;;;;;;;5092802;28;20077;-37
2023/09/20 06:13:34;;;;;;;8.55;3.45;;;;;;;;;;5092849;28;20036;-37
2023/09/20 06:16:01;;;;;;;9.13;3.78;;;;;;;;;;5092840;28;20024;-37
2023/09/20 06:18:28;;;;;;;8.57;3.42;;;;;;;;;;5092861;28;20024;-37
2023/09/20 06:20:55;;;;;;;8.00;3.50;;;;;;;;;;5092801;28;20032;-37
2023/09/20 06:23:25;;;;;;;9.18;3.53;;;;;;;;;;5096722;28;20056;-37
2023/09/20 06:25:53;;;;;;;6.32;3.22;;;;;;;;;;5113065;28;20083;-37
2023/09/20 06:28:20;;;;;;;8.70;3.75;;;;;;;;;;5112167;28;20089;-37
2023/09/20 06:30:47;;;;;;;9.75;3.95;;;;;;;;;;5112740;28;20504;-37
2023/09/20 06:33:14;;;;;;;8.70;3.53;;;;;;;;;;5112857;28;20058;-37
2023/09/20 06:35:43;;;;;;;8.30;3.50;;;;;;;;;;5112904;28;20026;-37
2023/09/20 06:38:10;;;;;;;7.20;3.38;;;;;;;;;;5112976;28;20024;-37
2023/09/20 06:40:40;;;;;;;9.73;3.58;;;;;;;;;;5112548;28;20027;-37
2023/09/20 06:43:07;;;;;;;7.18;3.42;;;;;;;;;;5112582;28;20028;-37
2023/09/20 06:45:35;;;;;;;7.57;3.13;;;;;;;;;;5112472;28;20028;-37
2023/09/20 06:48:02;;;;;;;8.93;3.60;;;;;;;;;;5112478;28;20088;-37
2023/09/20 06:50:35;;;;;;;8.27;3.60;;;;;;;;;;5112441;28;20022;-37
2023/09/20 06:53:02;;;;;;;8.43;3.35;;;;;;;;;;5112174;28;20027;-37
2023/09/20 06:55:29;;;;;;;8.50;3.63;;;;;;;;;;5112450;28;20501;-37
2023/09/20 06:57:56;;;;;;;8.23;3.00;;;;;;;;;;5112417;28;20153;-37
2023/09/20 07:00:26;;;;;;;8.25;3.30;;;;;;;;;;5112345;28;20019;-37
2023/09/20 07:02:55;;;;;;;5.40;2.47;;;;;;;;;;5112178;28;20477;-37
2023/09/20 07:05:24;;;;;;;7.63;3.00;;;;;;;;;;5112254;28;20106;-37
2023/09/20 07:07:51;;;;;;;8.48;3.20;;;;;;;;;;5112484;28;20499;-37
2023/09/20 07:10:19;;;;;;;6.82;2.83;;;;;;;;;;5112246;28;20023;-37
2023/09/20 07:12:46;;;;;;;7.63;2.80;;;;;;;;;;5112311;28;20048;-37
2023/09/20 07:15:16;;;;;;;4.90;2.50;;;;;;;;;;5112141;28;20027;-37
2023/09/20 07:17:58;;;;;;;7.07;2.70;;;;;;;;;;5112237;28;20032;-37
2023/09/20 07:20:32;;;;;;;5.70;2.75;;;;;;;;;;5112010;28;20024;-37
2023/09/20 07:22:59;;;;;;;7.28;2.67;;;;;;;;;;5111786;28;20385;-37
2023/09/20 07:25:29;;;;;;;6.43;2.70;;;;;;;;;;5112017;28;20032;-37
2023/09/20 07:27:58;;;;;;;7.18;2.88;;;;;;;;;;5111942;28;20024;-37
2023/09/20 07:30:31;;;;;;;5.32;2.67;;;;;;;;;;5111792;28;20060;-37
2023/09/20 07:32:58;;;;;;;;;;;;;;;;;;5112421;28;20450;-37
2023/09/20 07:35:36;;;;;;;6.60;2.22;;;;;;;;;;5111909;28;19962;-37
2023/09/20 07:38:04;;;;;;;7.20;2.90;;;;;;;;;;5111852;28;20103;-37
2023/09/20 07:40:33;;;;;;;6.22;2.58;;;;;;;;;;5114561;28;20474;-37
2023/09/20 07:43:04;;;;;;;5.22;2.50;;;;;;;;;;5116029;28;20024;-37
2023/09/20 07:45:42;;;;;;;7.75;2.85;;;;;;;;;;5116063;28;20023;-37
2023/09/20 07:48:13;;;;;;;5.63;2.20;;;;;;;;;;5116148;28;20030;-37
2023/09/20 07:50:50;;;;;;;4.55;2.30;;;;;;;;;;5115869;28;20020;-37
2023/09/20 07:53:18;;;;;;;6.38;2.55;;;;;;;;;;5115979;28;20023;-37
2023/09/20 07:55:45;;;;;;;5.43;2.20;;;;;;;;;;5115959;28;20377;-37
2023/09/20 07:58:16;;;;;;;5.43;2.83;;;;;;;;;;5115894;28;20362;-37
2023/09/20 08:00:52;;;;;;;8.57;2.42;;;;;;;;;;5115770;28;20020;-37
2023/09/20 08:03:21;;;;;;;7.22;2.58;;;;;;;;;;5115547;28;20042;-37
2023/09/20 08:05:53;;;;;;;6.80;2.38;;;;;;;;;;5115726;28;20089;-37
2023/09/20 08:08:20;;;;;;;6.85;2.30;;;;;;;;;;5115697;28;20027;-37
2023/09/20 08:10:48;;;;;;;4.95;2.20;;;;;;;;;;5115531;28;20023;-37
2023/09/20 08:13:16;;;;;;;4.63;2.25;;;;;;;;;;5115526;28;20023;-37
2023/09/20 08:15:44;;;;;;;6.03;2.05;;;;;;;;;;5115575;28;20038;-37
2023/09/20 08:20:57;;;;;;;4.93;2.42;;;;;;;;;;5115617;28;20453;-37
2023/09/20 09:02:17;;;;;;;6.60;2.35;;;;;;;;;;5094545;28;20044;-39
2023/09/20 09:04:55;;;;;;;5.07;1.85;;;;;;;;;;5094062;28;20456;-39
2023/09/20 09:07:25;;;;;;;4.00;2.00;;;;;;;;;;5094221;28;20025;-40
2023/09/20 09:09:53;;;;;;;4.32;1.90;;;;;;;;;;5093951;28;20036;-39
2023/09/20 09:12:20;;;;;;;3.78;1.85;;;;;;;;;;5094120;28;20070;-40
2023/09/20 09:14:48;;;;;;;5.03;1.75;;;;;;;;;;5094098;28;20028;-39
2023/09/20 09:17:16;;;;;;;3.47;1.90;;;;;;;;;;5093964;28;20013;-40
2023/09/20 09:19:43;;;;;;;5.10;2.10;;;;;;;;;;5093776;28;20028;-39
2023/09/20 09:22:10;;;;;;;4.00;2.00;;;;;;;;;;5093892;28;20024;-39
2023/09/20 09:24:47;;;;;;;4.68;2.00;;;;;;;;;;5093493;28;20102;-39
2023/09/20 09:27:18;;;;;;;6.57;1.98;;;;;;;;;;5093876;28;20026;-39
2023/09/20 09:29:45;;;;;;;4.20;1.90;;;;;;;;;;5093519;28;20020;-40
2023/09/20 09:32:13;;;;;;;5.50;1.92;;;;;;;;;;5093745;28;20028;-39
2023/09/20 09:34:43;;;;;;;3.92;1.73;;;;;;;;;;5093560;28;20036;-40
2023/09/20 09:37:11;;;;;;;8.95;2.00;;;;;;;;;;5093582;28;20405;-40
2023/09/20 09:39:39;;;;;;;5.47;1.88;;;;;;;;;;5092937;28;20023;-37
2023/09/20 09:42:09;;;;;;;4.68;2.10;;;;;;;;;;5093307;28;20031;-37
2023/09/20 09:44:49;;;;;;;9.27;2.20;;;;;;;;;;5121200;27;20091;-39
2023/09/20 09:47:18;;;;;;;8.80;2.20;;;;;;;;;;5113835;28;20362;-39
2023/09/20 09:49:48;;;;;;;11.52;2.20;;;;;;;;;;5095113;28;20385;-39
2023/09/20 09:52:17;;;;;;;10.38;2.30;;;;;;;;;;5113495;28;20019;-39
2023/09/20 09:54:45;;;;;;;11.27;2.10;;;;;;;;;;5113213;28;20024;-40
2023/09/20 09:57:12;;;;;;;13.07;2.58;;;;;;;;;;5113596;28;20046;-39
2023/09/20 09:59:40;;;;;;;9.30;2.00;;;;;;;;;;5113430;28;20028;-39
2023/09/20 10:02:17;;;;;;;9.20;2.00;;;;;;;;;;5097549;27;20493;-35
2023/09/20 10:05:04;;;;;;;12.25;2.35;;;;;;;;;;5091480;28;20040;-34
2023/09/20 10:07:36;;;;;;;10.18;2.40;;;;;;;;;;5092662;28;20510;-38
2023/09/20 10:10:08;;;;;;;5.65;1.98;;;;;;;;;;5092188;28;20020;-35
2023/09/20 10:12:39;;;;;;;16.60;2.60;;;;;;;;;;5091196;28;20033;-35
2023/09/20 10:15:07;;;;;;;7.38;1.98;;;;;;;;;;5090624;28;20390;-36
2023/09/20 10:17:37;;;;;;;8.73;2.45;;;;;;;;;;5092461;28;20016;-33
2023/09/20 10:20:07;;;;;;;11.27;2.22;;;;;;;;;;5093101;27;20043;-35
2023/09/20 10:22:45;;;;;;;9.48;1.80;;;;;;;;;;5121621;27;20050;-37
2023/09/20 10:25:32;;;;;;;10.40;2.20;;;;;;;;;;5112317;27;20064;-36
2023/09/20 10:28:04;;;;;;;19.70;2.47;;;;;;;;;;5112557;28;20039;-37
2023/09/20 10:30:34;;;;;;;10.80;2.15;;;;;;;;;;5111550;28;20032;-37
2023/09/20 10:33:04;;;;;;;11.15;2.67;;;;;;;;;;5111054;28;20035;-37
2023/09/20 10:35:33;;;;;;;10.52;1.85;;;;;;;;;;5111811;27;20020;-36
2023/09/20 10:38:09;;;;;;;5.47;2.10;;;;;;;;;;5118813;27;20024;-35
2023/09/20 10:40:57;;;;;;;9.68;2.13;;;;;;;;;;5112159;28;20028;-35
2023/09/20 10:43:42;;;;;;;8.55;1.90;;;;;;;;;;5112164;28;20047;-36
2023/09/20 10:46:14;;;;;;;13.13;1.92;;;;;;;;;;5111468;28;20028;-36
2023/09/20 10:48:49;;;;;;;9.80;2.20;;;;;;;;;;5112590;28;20012;-35
2023/09/20 10:51:34;;;;;;;6.10;1.40;;;;;;;;;;5112025;28;20272;-36
2023/09/20 10:54:03;;;;;;;8.30;2.00;;;;;;;;;;5112406;28;20045;-36
2023/09/20 10:56:50;;;;;;;4.70;1.92;;;;;;;;;;5110255;28;20055;-35
2023/09/20 10:59:18;;;;;;;22.15;2.97;;;;;;;;;;5114797;27;20757;-35
2023/09/20 11:01:51;;;;;;;15.70;2.20;;;;;;;;;;5111619;27;20038;-36
2023/09/20 11:04:18;;;;;;;12.15;2.45;;;;;;;;;;5112034;28;20362;-36
2023/09/20 11:06:46;;;;;;;16.23;2.25;;;;;;;;;;5110415;28;20032;-35
2023/09/20 11:09:14;;;;;;;13.32;2.03;;;;;;;;;;5111258;28;20065;-36
2023/09/20 11:11:43;;;;;;;13.52;1.90;;;;;;;;;;5111295;28;20020;-37
2023/09/20 11:14:12;;;;;;;15.50;2.25;;;;;;;;;;5111529;28;20031;-35
2023/09/20 11:16:43;;;;;;;12.27;1.92;;;;;;;;;;5111934;28;20031;-35
2023/09/20 11:19:13;;;;;;;13.50;2.22;;;;;;;;;;5112109;28;20023;-35
2023/09/20 11:21:43;;;;;;;11.30;2.40;;;;;;;;;;5106595;28;20032;-36
2023/09/20 11:24:14;;;;;;;15.82;2.60;;;;;;;;;;5095904;28;20100;-39
2023/09/20 11:26:47;;;;;;;13.50;2.38;;;;;;;;;;5111100;28;20047;-38
2023/09/20 11:29:16;;;;;;;16.48;2.33;;;;;;;;;;5108097;28;20032;-38
2023/09/20 11:31:48;;;;;;;11.02;2.38;;;;;;;;;;5098613;28;20089;-37
2023/09/20 11:34:19;;;;;;;11.35;2.50;;;;;;;;;;5101734;28;20074;-35
2023/09/20 11:36:53;;;;;;;14.30;2.13;;;;;;;;;;5110764;28;20032;-35
2023/09/20 11:39:30;;;;;;;9.07;2.15;;;;;;;;;;5110585;28;20036;-38
2023/09/20 11:42:07;;;;;;;12.13;2.20;;;;;;;;;;5095573;28;20028;-37
2023/09/20 11:44:35;;;;;;;9.10;2.35;;;;;;;;;;5090906;28;20498;-36
2023/09/20 11:47:03;;;;;;;13.23;2.17;;;;;;;;;;5090235;28;20070;-35
2023/09/20 11:49:30;;;;;;;10.15;2.30;;;;;;;;;;5090903;28;20475;-35
2023/09/20 11:51:57;;;;;;;7.60;1.95;;;;;;;;;;5090123;28;20031;-36
2023/09/20 11:54:34;;;;;;;8.73;2.13;;;;;;;;;;5090506;28;20454;-37
2023/09/20 11:57:04;;;;;;;10.23;2.05;;;;;;;;;;5089418;28;20020;-35
2023/09/20 11:59:41;;;;;;;13.02;2.03;;;;;;;;;;5091004;28;20032;-35
2023/09/20 12:02:08;;;;;;;11.05;2.13;;;;;;;;;;5091368;28;20377;-35
2023/09/20 12:04:35;;;;;;;13.50;2.55;;;;;;;;;;5091307;28;20031;-35
2023/09/20 12:07:02;;;;;;;12.70;2.03;;;;;;;;;;5091374;28;20062;-36
2023/09/20 12:09:30;;;;;;;13.13;2.22;;;;;;;;;;5091285;28;20028;-35
2023/09/20 12:11:58;;;;;;;10.55;2.20;;;;;;;;;;5091170;28;20040;-36
2023/09/20 12:14:25;;;;;;;11.20;2.30;;;;;;;;;;5091295;28;20111;-36
2023/09/20 12:16:52;;;;;;;10.52;2.20;;;;;;;;;;5091377;28;20043;-36
2023/09/20 12:19:19;;;;;;;12.20;2.60;;;;;;;;;;5091236;28;20032;-35
2023/09/20 12:21:46;;;;;;;7.95;1.90;;;;;;;;;;5094866;28;20535;-35
2023/09/20 12:24:13;;;;;;;6.78;2.15;;;;;;;;;;5099414;28;20540;-35
2023/09/20 12:26:41;;;;;;;14.85;2.30;;;;;;;;;;5102467;28;20092;-36
2023/09/20 12:29:08;;;;;;;13.50;2.70;;;;;;;;;;5112437;28;20074;-38
2023/09/20 12:31:35;;;;;;;17.27;2.95;;;;;;;;;;5114961;28;20031;-36
2023/09/20 12:34:03;;;;;;;15.80;2.47;;;;;;;;;;5115046;28;20521;-38
2023/09/20 12:36:30;;;;;;;15.65;2.35;;;;;;;;;;5115054;28;20038;-38
2023/09/20 12:39:01;;;;;;;12.70;2.10;;;;;;;;;;5114898;28;20053;-38
2023/09/20 12:41:28;;;;;;;17.33;3.03;;;;;;;;;;5115085;28;20051;-38
2023/09/20 12:43:55;;;;;;;16.90;2.50;;;;;;;;;;5122036;27;20462;-36
2023/09/20 12:46:24;;;;;;;12.38;2.53;;;;;;;;;;5114765;28;20089;-36
2023/09/20 12:48:51;;;;;;;9.70;2.45;;;;;;;;;;5114137;28;20070;-37
2023/09/20 12:51:18;;;;;;;9.13;2.50;;;;;;;;;;5114929;28;20039;-38
2023/09/20 12:53:45;;;;;;;10.70;2.42;;;;;;;;;;5114001;27;20392;-36
2023/09/20 12:56:13;;;;;;;14.57;3.13;;;;;;;;;;5114593;28;20038;-38
2023/09/20 12:58:41;;;;;;;8.75;2.33;;;;;;;;;;5114584;28;20032;-38
2023/09/20 13:01:10;;;;;;;15.05;2.53;;;;;;;;;;5114601;28;20469;-38
2023/09/20 13:03:43;;;;;;;9.98;2.40;;;;;;;;;;5114599;28;20583;-38
2023/09/20 13:06:14;;;;;;;10.63;2.75;;;;;;;;;;5114599;28;20023;-37
2023/09/20 13:08:41;;;;;;;10.70;2.30;;;;;;;;;;5114424;28;20123;-38
2023/09/20 13:11:10;;;;;;;14.13;2.33;;;;;;;;;;5114572;28;20020;-38
2023/09/20 13:13:41;;;;;;;12.32;2.30;;;;;;;;;;5114440;28;20036;-38
2023/09/20 13:16:12;;;;;;;8.45;2.55;;;;;;;;;;5114405;28;20473;-38
2023/09/20 13:18:39;;;;;;;10.73;2.90;;;;;;;;;;5114283;27;20038;-38
2023/09/20 13:21:07;;;;;;;7.97;2.25;;;;;;;;;;5114433;28;20308;-38
2023/09/20 13:23:34;;;;;;;10.48;2.28;;;;;;;;;;5114191;28;20072;-38
2023/09/20 13:26:05;;;;;;;7.00;2.03;;;;;;;;;;5114242;28;20130;-37
2023/09/20 13:28:32;;;;;;;10.55;2.45;;;;;;;;;;5114193;28;20802;-38
2023/09/20 13:31:01;;;;;;;7.43;2.42;;;;;;;;;;5114109;28;20504;-38
2023/09/20 13:33:28;;;;;;;8.50;2.42;;;;;;;;;;5113808;28;20489;-38
2023/09/20 13:35:55;;;;;;;7.45;2.38;;;;;;;;;;5113733;28;20114;-36
2023/09/20 13:38:22;;;;;;;10.07;2.15;;;;;;;;;;5113696;28;20110;-35
2023/09/20 13:40:51;;;;;;;9.43;2.03;;;;;;;;;;5113508;27;20389;-36
2023/09/20 13:43:18;;;;;;;10.68;2.28;;;;;;;;;;5113613;28;20058;-38
2023/09/20 13:45:45;;;;;;;9.20;2.10;;;;;;;;;;5113006;27;20031;-37
2023/09/20 13:48:13;;;;;;;10.18;2.17;;;;;;;;;;5100418;28;20051;-36
2023/09/20 13:50:43;;;;;;;14.05;2.85;;;;;;;;;;5103846;28;20393;-36
2023/09/20 13:53:10;;;;;;;11.32;2.08;;;;;;;;;;5103196;28;20462;-39
2023/09/20 13:55:37;;;;;;;10.60;2.35;;;;;;;;;;5113687;28;20024;-39
2023/09/20 13:58:07;;;;;;;6.18;1.75;;;;;;;;;;5113467;28;20081;-38
2023/09/20 14:00:34;;;;;;;10.00;2.00;;;;;;;;;;5113254;28;20032;-38
2023/09/20 14:03:05;;;;;;;15.55;2.25;;;;;;;;;;5113415;28;20035;-36
2023/09/20 14:05:32;;;;;;;8.20;2.33;;;;;;;;;;5113516;28;20036;-37
2023/09/20 14:07:59;;;;;;;10.13;2.20;;;;;;;;;;5113499;28;20046;-36
2023/09/20 14:10:34;;;;;;;9.73;1.83;;;;;;;;;;5113386;28;20393;-36
2023/09/20 14:13:01;;;;;;;6.00;2.03;;;;;;;;;;5113280;28;20031;-36
2023/09/20 14:15:29;;;;;;;14.07;2.50;;;;;;;;;;5113239;28;20047;-37
2023/09/20 14:17:58;;;;;;;10.98;2.67;;;;;;;;;;5113170;28;20035;-37
2023/09/20 14:20:28;;;;;;;7.95;2.65;;;;;;;;;;5113025;27;20039;-37
2023/09/20 14:22:55;;;;;;;7.70;2.17;;;;;;;;;;5112964;28;20031;-38
2023/09/20 14:25:24;;;;;;;13.10;2.60;;;;;;;;;;5113093;28;20499;-36
2023/09/20 14:27:58;;;;;;;10.48;2.42;;;;;;;;;;5113050;28;20023;-36
2023/09/20 14:30:25;;;;;;;12.35;2.50;;;;;;;;;;5112959;27;20474;-36
2023/09/20 14:32:53;;;;;;;8.30;1.98;;;;;;;;;;5113004;28;20028;-37
2023/09/20 14:35:22;;;;;;;12.55;2.65;;;;;;;;;;5112876;28;20035;-37
2023/09/20 14:37:53;;;;;;;9.98;2.30;;;;;;;;;;5112935;28;20035;-37
2023/09/20 14:40:21;;;;;;;9.93;2.30;;;;;;;;;;5112760;28;20542;-37
2023/09/20 14:42:49;;;;;;;9.95;2.45;;;;;;;;;;5112779;28;20031;-37
2023/09/20 14:45:17;;;;;;;12.00;2.40;;;;;;;;;;5112705;28;20036;-36
2023/09/20 14:47:47;;;;;;;9.65;2.55;;;;;;;;;;5112727;28;20036;-36
2023/09/20 14:50:14;;;;;;;6.97;2.45;;;;;;;;;;5112012;28;20032;-37
2023/09/20 14:52:41;;;;;;;10.88;2.53;;;;;;;;;;5112654;28;20024;-36
2023/09/20 14:55:12;;;;;;;11.57;2.25;;;;;;;;;;5112686;28;20027;-36
2023/09/20 14:57:42;;;;;;;11.10;2.28;;;;;;;;;;5112440;28;20549;-36
2023/09/20 15:00:16;;;;;;;13.35;2.47;;;;;;;;;;5112317;28;20035;-36
2023/09/20 15:02:47;;;;;;;6.50;2.03;;;;;;;;;;5112387;28;20034;-37
2023/09/20 15:05:14;;;;;;;9.15;2.45;;;;;;;;;;5112465;28;20520;-36
2023/09/20 15:07:43;;;;;;;12.43;2.28;;;;;;;;;;5112406;28;20363;-37
2023/09/20 15:10:10;;;;;;;12.02;2.28;;;;;;;;;;5112217;28;20393;-36
2023/09/20 15:12:38;;;;;;;8.25;2.08;;;;;;;;;;5112361;28;20047;-36
2023/09/20 15:15:06;;;;;;;6.75;1.88;;;;;;;;;;5112197;28;20043;-37
2023/09/20 15:17:33;;;;;;;6.88;2.10;;;;;;;;;;5112336;28;20050;-37
2023/09/20 15:20:01;;;;;;;7.05;1.98;;;;;;;;;;5112036;28;20024;-37
2023/09/20 15:22:31;;;;;;;10.77;2.30;;;;;;;;;;5112309;28;20027;-36
2023/09/20 15:24:58;;;;;;;11.38;2.10;;;;;;;;;;5111808;28;20036;-36
2023/09/20 15:27:28;;;;;;;10.07;2.35;;;;;;;;;;5112065;28;20107;-37